Time;durP1;ratioP1;P1;durP2;ratioP2;P2;SDS_P1;SDS_P2;PMS_P1;PMS_P2;Temp;Humidity;BMP_temperature;BMP_pressure;BME280_temperature;BME280_humidity;BME280_pressure;Samples;Min_cycle;Max_cycle;Signal;HPM_P1;HPM_P2
2021/05/25 00:00:58;;;;;;;17.35;4.68;;;;;;;19.58;75.13;100430.22;4994513;28;20034;-73
2021/05/25 00:03:24;;;;;;;17.42;4.70;;;;;;;19.60;75.44;100444.72;4994504;28;20033;-72
2021/05/25 00:05:49;;;;;;;15.52;4.43;;;;;;;19.50;76.08;100435.13;4994082;28;20030;-73
2021/05/25 00:08:15;;;;;;;10.38;4.05;;;;;;;19.72;75.39;100447.03;4994502;28;20041;-73
2021/05/25 00:10:41;;;;;;;15.45;5.35;;;;;;;19.65;75.81;100432.19;4994048;28;20053;-73
2021/05/25 00:13:07;;;;;;;19.95;5.28;;;;;;;19.68;76.04;100440.63;4994470;28;20109;-73
2021/05/25 00:15:35;;;;;;;13.68;5.15;;;;;;;19.61;76.41;100444.31;4994279;28;20431;-72
2021/05/25 00:18:02;;;;;;;21.08;4.88;;;;;;;19.65;76.52;100449.91;4994274;28;20077;-73
2021/05/25 00:20:28;;;;;;;18.17;5.20;;;;;;;19.53;76.90;100451.22;4994322;28;20484;-73
2021/05/25 00:22:57;;;;;;;14.18;5.88;;;;;;;19.56;76.68;100443.94;4994062;28;20092;-74
2021/05/25 00:25:22;;;;;;;12.60;4.78;;;;;;;19.63;76.42;100455.19;4994159;28;20030;-72
2021/05/25 00:27:50;;;;;;;15.15;5.25;;;;;;;19.44;77.40;100445.28;4993980;28;20034;-73
2021/05/25 00:30:18;;;;;;;17.98;6.15;;;;;;;19.51;77.38;100458.50;4994036;28;20026;-73
2021/05/25 00:32:44;;;;;;;13.00;5.25;;;;;;;19.46;77.31;100456.13;4993414;28;20485;-74
2021/05/25 00:35:11;;;;;;;12.80;5.15;;;;;;;19.52;77.12;100457.28;4994070;28;20196;-73
2021/05/25 00:37:37;;;;;;;8.95;4.82;;;;;;;19.55;77.15;100464.94;4993826;28;20381;-75
2021/05/25 00:40:04;;;;;;;11.50;4.25;;;;;;;19.51;77.40;100464.16;4993738;28;20046;-74
2021/05/25 00:42:30;;;;;;;13.50;4.78;;;;;;;19.47;77.60;100469.03;4994713;28;20026;-72
2021/05/25 00:44:55;;;;;;;11.43;4.38;;;;;;;19.40;78.22;100457.81;4993348;28;20049;-74
2021/05/25 00:47:32;;;;;;;11.30;4.50;;;;;;;19.32;78.31;100452.22;4993674;28;20046;-73
2021/05/25 00:50:11;;;;;;;9.45;3.90;;;;;;;19.33;78.57;100459.47;4993823;28;20057;-72
2021/05/25 00:52:48;;;;;;;8.57;3.85;;;;;;;19.32;78.79;100457.06;4995093;28;20531;-73
2021/05/25 00:55:27;;;;;;;9.50;4.43;;;;;;;19.32;78.68;100457.84;4993561;28;20030;-72
2021/05/25 00:57:53;;;;;;;11.82;4.45;;;;;;;19.25;78.63;100455.09;4993413;28;20076;-73
2021/05/25 01:00:26;;;;;;;10.40;5.20;;;;;;;19.15;78.37;100460.81;4994544;28;20022;-74
2021/05/25 01:02:52;;;;;;;10.20;4.18;;;;;;;19.14;78.50;100453.59;4992863;28;20034;-73
2021/05/25 01:05:18;;;;;;;8.45;3.42;;;;;;;19.08;79.06;100458.88;4993113;28;20112;-73
2021/05/25 01:07:44;;;;;;;13.60;4.10;;;;;;;19.04;79.32;100458.09;4993329;28;20385;-74
2021/05/25 01:10:12;;;;;;;12.65;4.07;;;;;;;18.99;79.61;100462.16;4993128;28;20081;-74
2021/05/25 01:12:48;;;;;;;12.77;4.22;;;;;;;18.90;79.75;100453.34;4993224;28;20026;-74
2021/05/25 01:15:14;;;;;;;11.57;4.00;;;;;;;18.91;80.20;100456.97;4993214;28;20026;-73
2021/05/25 01:17:40;;;;;;;13.10;4.35;;;;;;;18.86;80.39;100454.59;4993302;28;20084;-74
2021/05/25 01:20:06;;;;;;;13.02;4.57;;;;;;;18.74;81.04;100445.38;4976922;28;20462;-73
2021/05/25 01:22:32;;;;;;;7.72;4.03;;;;;;;18.75;81.22;100449.84;4993065;28;20026;-73
2021/05/25 01:24:58;;;;;;;9.38;4.40;;;;;;;18.80;80.99;100443.75;4993001;28;20045;-72
2021/05/25 01:27:23;;;;;;;13.73;4.75;;;;;;;18.73;81.24;100443.00;4993183;28;20077;-73
2021/05/25 01:29:49;;;;;;;13.07;5.00;;;;;;;18.65;81.34;100447.84;4993015;28;20034;-73
2021/05/25 01:32:15;;;;;;;10.07;4.45;;;;;;;18.64;81.99;100451.06;4976262;28;20502;-73
2021/05/25 01:34:41;;;;;;;10.50;4.78;;;;;;;18.56;81.96;100439.03;4993066;28;20476;-73
2021/05/25 01:37:09;;;;;;;9.05;4.40;;;;;;;18.61;81.99;100446.25;4992793;28;20022;-73
2021/05/25 01:39:35;;;;;;;12.88;6.00;;;;;;;18.61;81.88;100452.69;4992844;28;20041;-73
2021/05/25 01:42:01;;;;;;;10.93;4.18;;;;;;;18.58;81.52;100447.88;4992700;28;20030;-72
2021/05/25 01:44:26;;;;;;;17.08;5.93;;;;;;;18.69;81.13;100447.84;4992888;28;20081;-72
2021/05/25 01:46:52;;;;;;;13.18;4.93;;;;;;;18.66;80.78;100460.72;4992760;28;20092;-73
2021/05/25 01:49:18;;;;;;;19.38;5.63;;;;;;;18.70;81.13;100455.91;4992758;28;20041;-74
2021/05/25 01:51:53;;;;;;;25.40;6.05;;;;;;;18.64;80.87;100449.03;4992736;28;20126;-73
2021/05/25 01:54:19;;;;;;;15.73;6.72;;;;;;;18.76;80.53;100462.72;4992698;28;20035;-72
2021/05/25 01:56:45;;;;;;;18.58;5.40;;;;;;;18.84;80.39;100471.91;4992831;28;20125;-73
2021/05/25 01:59:11;;;;;;;14.13;5.20;;;;;;;18.81;80.07;100470.72;4992569;28;20092;-74
2021/05/25 02:01:38;;;;;;;18.50;6.03;;;;;;;18.72;79.74;100467.56;4992879;28;20038;-73
2021/05/25 02:04:04;;;;;;;13.25;5.13;;;;;;;18.80;80.04;100469.13;4992583;28;20035;-73
2021/05/25 02:06:30;;;;;;;14.18;5.53;;;;;;;18.86;79.74;100468.69;4992683;28;20030;-74
2021/05/25 02:08:59;;;;;;;10.55;4.65;;;;;;;18.87;79.14;100464.66;4976975;28;20038;-74
2021/05/25 02:11:25;;;;;;;12.15;4.68;;;;;;;18.90;78.91;100475.91;5012471;28;20034;-73
2021/05/25 02:13:51;;;;;;;11.13;5.63;;;;;;;18.97;78.17;100469.44;4997135;28;20396;-73
2021/05/25 02:16:18;;;;;;;9.90;4.25;;;;;;;19.03;77.50;100467.78;4999552;28;20042;-73
2021/05/25 02:18:46;;;;;;;10.30;4.10;;;;;;;18.99;77.30;100472.63;4999821;28;20057;-73
2021/05/25 02:21:14;;;;;;;14.07;3.97;;;;;;;19.00;77.24;100474.22;4999483;28;20566;-73
2021/05/25 02:23:40;;;;;;;9.32;4.40;;;;;;;19.00;77.06;100474.22;5017290;28;20026;-73
2021/05/25 02:26:06;;;;;;;10.43;4.15;;;;;;;18.94;77.16;100467.41;4999410;28;20029;-73
2021/05/25 02:28:32;;;;;;;13.02;3.80;;;;;;;18.98;76.87;100473.84;4999557;28;20246;-73
2021/05/25 02:30:58;;;;;;;9.82;3.92;;;;;;;19.06;76.87;100484.66;4999429;28;20121;-74
2021/05/25 02:33:24;;;;;;;11.13;4.13;;;;;;;18.99;76.79;100475.44;4999181;28;20160;-74
2021/05/25 02:35:52;;;;;;;9.45;4.30;;;;;;;18.97;77.55;100475.06;4999399;28;20026;-73
2021/05/25 02:38:18;;;;;;;10.98;4.28;;;;;;;18.96;78.07;100490.34;4999251;28;20124;-73
2021/05/25 02:40:45;;;;;;;8.00;3.70;;;;;;;18.96;77.78;100481.91;4999561;28;20107;-74
2021/05/25 02:43:12;;;;;;;14.35;4.30;;;;;;;18.97;77.44;100483.53;4999092;28;20065;-73
2021/05/25 02:45:38;;;;;;;13.10;5.07;;;;;;;18.95;77.74;100483.13;4999289;28;20037;-74
2021/05/25 02:48:04;;;;;;;16.08;4.45;;;;;;;18.91;77.78;100487.97;4999167;28;20037;-74
2021/05/25 02:50:31;;;;;;;11.15;4.03;;;;;;;18.91;77.67;100499.25;4999035;28;20552;-73
2021/05/25 02:52:57;;;;;;;11.95;4.10;;;;;;;18.93;77.91;100488.38;4999135;28;20026;-73
2021/05/25 02:55:28;;;;;;;14.10;4.65;;;;;;;18.86;77.88;100494.06;5015308;28;20041;-74
2021/05/25 02:57:55;;;;;;;12.85;5.07;;;;;;;18.94;77.64;100487.16;4999033;28;20060;-73
2021/05/25 03:00:31;;;;;;;17.23;4.50;;;;;;;18.94;77.28;100492.81;4998843;28;20060;-73
2021/05/25 03:02:57;;;;;;;15.23;5.43;;;;;;;18.93;77.58;100489.19;5013456;28;20073;-74
2021/05/25 03:05:24;;;;;;;14.68;4.78;;;;;;;18.96;77.01;100490.34;4998789;28;20064;-73
2021/05/25 03:07:51;;;;;;;14.52;5.15;;;;;;;18.81;77.81;100489.66;4998493;28;20122;-73
2021/05/25 03:10:20;;;;;;;15.32;5.97;;;;;;;18.64;78.91;100498.97;4995122;28;20097;-73
2021/05/25 03:12:49;;;;;;;16.38;5.18;;;;;;;18.70;78.21;100494.56;4995539;28;20440;-73
2021/05/25 03:15:19;;;;;;;11.63;4.68;;;;;;;18.63;78.72;100505.81;4996603;28;20034;-75
2021/05/25 03:17:45;;;;;;;16.40;5.00;;;;;;;18.69;78.21;100498.56;4995475;28;20384;-74
2021/05/25 03:20:13;;;;;;;14.30;5.15;;;;;;;18.73;78.07;100500.16;4995312;28;20092;-75
2021/05/25 03:22:42;;;;;;;16.42;5.20;;;;;;;18.72;77.95;100501.38;4995283;28;20540;-73
2021/05/25 03:25:13;;;;;;;18.40;4.65;;;;;;;18.62;78.35;100502.19;4995053;28;20089;-73
2021/05/25 03:27:39;;;;;;;13.48;4.57;;;;;;;18.59;78.30;100492.56;4995222;28;20049;-72
2021/05/25 03:30:08;;;;;;;14.57;4.38;;;;;;;18.47;78.43;100503.47;4995349;28;20034;-73
2021/05/25 03:32:34;;;;;;;13.75;4.90;;;;;;;18.50;78.49;100502.66;4996205;28;20030;-72
2021/05/25 03:34:59;;;;;;;12.32;3.90;;;;;;;18.47;78.59;100515.56;4995116;28;20088;-73
2021/05/25 03:37:25;;;;;;;13.88;4.18;;;;;;;18.44;78.54;100518.41;4994978;28;20053;-73
2021/05/25 03:39:51;;;;;;;12.95;5.18;;;;;;;18.39;78.68;100513.19;4995195;28;20054;-73
2021/05/25 03:42:16;;;;;;;15.93;5.75;;;;;;;18.46;78.61;100513.94;4994873;28;20507;-74
2021/05/25 03:44:43;;;;;;;13.63;4.93;;;;;;;18.42;78.70;100515.97;4994526;28;20038;-74
2021/05/25 03:47:08;;;;;;;15.82;4.85;;;;;;;18.42;78.70;100518.78;4995037;28;20038;-72
2021/05/25 03:49:34;;;;;;;17.35;5.30;;;;;;;18.21;79.56;100518.84;4994756;28;20519;-73
2021/05/25 03:51:59;;;;;;;15.30;5.32;;;;;;;18.27;79.11;100512.44;4994795;28;20088;-73
2021/05/25 03:54:36;;;;;;;22.65;5.30;;;;;;;18.38;78.31;100520.84;4994683;28;20121;-74
2021/05/25 03:59:51;;;;;;;15.35;4.28;;;;;;;18.40;78.25;100514.78;4974934;28;20125;-74
2021/05/25 04:02:17;;;;;;;13.75;4.80;;;;;;;18.38;78.00;100514.41;4994486;28;20034;-73
2021/05/25 04:04:42;;;;;;;14.48;4.22;;;;;;;18.38;78.03;100522.84;4994526;28;20038;-73
2021/05/25 04:07:08;;;;;;;11.63;5.10;;;;;;;18.53;77.18;100521.56;4994576;28;20026;-74
2021/05/25 04:09:34;;;;;;;13.95;4.63;;;;;;;18.51;77.19;100521.19;4993342;28;20413;-72
2021/05/25 04:11:59;;;;;;;14.45;5.03;;;;;;;18.55;77.06;100521.97;4994284;28;20057;-73
2021/05/25 04:14:29;;;;;;;8.45;4.70;;;;;;;18.57;76.59;100530.81;4994487;28;20112;-73
2021/05/25 04:16:56;;;;;;;11.02;4.68;;;;;;;18.52;76.88;100523.56;4994410;28;20453;-73
2021/05/25 04:19:21;;;;;;;16.63;5.25;;;;;;;18.40;77.25;100523.25;4994241;28;20104;-74
2021/05/25 04:21:49;;;;;;;13.52;5.38;;;;;;;18.41;77.43;100524.84;4994204;28;20489;-73
2021/05/25 04:24:15;;;;;;;8.20;4.50;;;;;;;18.45;77.48;100532.06;4994056;28;20045;-75
2021/05/25 04:26:41;;;;;;;12.40;4.78;;;;;;;18.90;76.23;100525.84;4994131;28;20493;-73
2021/05/25 04:29:07;;;;;;;10.73;5.10;;;;;;;19.57;72.95;100525.38;4994118;28;20034;-73
2021/05/25 04:31:32;;;;;;;12.60;4.18;;;;;;;19.98;71.35;100526.66;4993764;28;20088;-74
2021/05/25 04:33:58;;;;;;;13.13;5.32;;;;;;;20.70;68.83;100530.28;4994251;28;20041;-72
2021/05/25 04:36:24;;;;;;;17.55;4.85;;;;;;;20.71;68.22;100523.38;4992991;28;20492;-74
2021/05/25 04:38:50;;;;;;;13.48;4.80;;;;;;;20.64;68.40;100524.28;4993896;28;20031;-73
2021/05/25 04:41:16;;;;;;;13.50;5.05;;;;;;;21.38;66.04;100520.84;4993803;28;20034;-71
2021/05/25 04:43:41;;;;;;;13.55;4.85;;;;;;;21.30;65.66;100517.31;4993748;28;20034;-75
2021/05/25 04:46:07;;;;;;;11.75;4.05;;;;;;;21.52;64.75;100525.44;4993876;28;20037;-72
2021/05/25 04:48:33;;;;;;;13.80;3.85;;;;;;;21.83;64.52;100532.59;4993680;28;20172;-71
2021/05/25 04:51:01;;;;;;;9.65;3.88;;;;;;;22.36;62.14;100528.00;4993680;28;20097;-72
2021/05/25 04:53:27;;;;;;;9.10;3.50;;;;;;;21.60;64.33;100538.28;4993347;28;20144;-72
2021/05/25 04:55:54;;;;;;;9.00;3.88;;;;;;;20.87;66.78;100540.53;4993525;28;20054;-73
2021/05/25 04:58:19;;;;;;;7.38;3.22;;;;;;;20.59;67.40;100538.09;4993519;28;20026;-73
2021/05/25 05:00:48;;;;;;;14.90;3.97;;;;;;;20.35;68.44;100539.97;4993223;28;20480;-73
2021/05/25 05:03:13;;;;;;;14.25;4.68;;;;;;;20.44;69.03;100547.94;4993359;28;20037;-73
2021/05/25 05:05:39;;;;;;;10.13;3.80;;;;;;;20.56;67.98;100542.56;4993291;28;20030;-73
2021/05/25 05:08:06;;;;;;;15.30;3.58;;;;;;;20.69;66.60;100542.81;4993359;28;20057;-73
2021/05/25 05:10:32;;;;;;;11.43;2.95;;;;;;;20.14;68.25;100557.97;4992834;28;20397;-73
2021/05/25 05:12:57;;;;;;;6.05;3.40;;;;;;;20.18;68.89;100563.56;4993161;28;20030;-73
2021/05/25 05:15:23;;;;;;;13.05;4.15;;;;;;;20.27;68.68;100561.03;4993239;28;20472;-73
2021/05/25 05:17:50;;;;;;;7.20;3.00;;;;;;;20.45;67.36;100560.84;4993052;28;20030;-73
2021/05/25 05:20:16;;;;;;;11.40;3.75;;;;;;;20.39;66.98;100560.50;4993334;28;20042;-73
2021/05/25 05:22:42;;;;;;;8.60;3.15;;;;;;;20.25;67.85;100569.94;4993030;28;20026;-74
2021/05/25 05:25:10;;;;;;;9.43;3.20;;;;;;;20.39;67.26;100575.41;4993135;28;20044;-73
2021/05/25 05:27:36;;;;;;;8.35;3.72;;;;;;;20.32;67.06;100578.34;4992489;28;20022;-75
2021/05/25 05:30:04;;;;;;;14.90;3.42;;;;;;;20.60;66.32;100591.38;4992974;28;20038;-73
2021/05/25 05:32:29;;;;;;;11.95;3.22;;;;;;;20.53;66.64;100587.84;4992505;28;20085;-74
2021/05/25 05:34:55;;;;;;;11.02;3.28;;;;;;;20.46;66.49;100585.06;4992740;28;20030;-73
2021/05/25 05:37:20;;;;;;;6.18;2.97;;;;;;;20.47;66.17;100593.16;4992857;28;20469;-73
2021/05/25 05:39:46;;;;;;;6.18;2.53;;;;;;;20.40;66.58;100590.38;4992656;28;20173;-72
2021/05/25 05:42:12;;;;;;;8.48;3.70;;;;;;;20.29;66.42;100567.84;4992973;28;20030;-72
2021/05/25 05:44:38;;;;;;;6.10;2.53;;;;;;;20.29;67.20;100604.59;4992590;28;20113;-74
2021/05/25 05:47:04;;;;;;;7.85;3.20;;;;;;;20.28;67.03;100603.00;4992742;28;20116;-73
2021/05/25 05:49:29;;;;;;;10.15;3.13;;;;;;;20.21;67.41;100608.72;4992250;28;20341;-74
2021/05/25 05:51:55;;;;;;;9.45;2.85;;;;;;;20.05;67.55;100614.94;4992183;28;20022;-73
2021/05/25 05:54:24;;;;;;;8.20;3.15;;;;;;;20.20;67.44;100620.44;4992713;28;20034;-73
2021/05/25 05:56:50;;;;;;;12.20;3.35;;;;;;;20.26;67.41;100613.94;4992726;28;20106;-72
2021/05/25 05:59:17;;;;;;;12.60;3.10;;;;;;;20.20;67.16;100620.44;4976523;28;20042;-74
2021/05/25 06:01:42;;;;;;;8.88;3.13;;;;;;;20.34;65.85;100623.91;4992569;28;20128;-73
2021/05/25 06:04:08;;;;;;;7.18;3.60;;;;;;;20.16;66.32;100614.81;4992465;28;20038;-73
2021/05/25 06:06:34;;;;;;;13.70;3.45;;;;;;;20.01;66.83;100619.00;4992505;28;20030;-73
2021/05/25 06:08:59;;;;;;;10.07;2.97;;;;;;;19.89;67.81;100631.59;4993435;28;20042;-73
2021/05/25 06:11:25;;;;;;;8.32;3.05;;;;;;;19.82;68.46;100629.66;5011698;28;20033;-73
2021/05/25 06:13:51;;;;;;;8.50;3.85;;;;;;;19.78;68.13;100642.19;4995531;28;20053;-73
2021/05/25 06:16:16;;;;;;;5.25;2.75;;;;;;;19.83;67.93;100645.38;4995668;28;20060;-74
2021/05/25 06:18:42;;;;;;;9.35;3.15;;;;;;;19.78;67.95;100643.00;5011973;28;20030;-73
2021/05/25 06:21:07;;;;;;;9.95;3.35;;;;;;;19.79;68.45;100644.59;4995569;28;20479;-73
2021/05/25 06:23:38;;;;;;;8.35;2.65;;;;;;;19.62;68.84;100654.78;4995662;28;20472;-74
2021/05/25 06:26:03;;;;;;;3.03;2.20;;;;;;;19.61;68.03;100655.22;5013427;28;20033;-74
2021/05/25 06:28:31;;;;;;;4.93;2.58;;;;;;;19.53;68.72;100648.75;4995773;28;20032;-74
2021/05/25 06:30:57;;;;;;;8.00;2.65;;;;;;;19.34;69.15;100658.56;4995426;28;20053;-74
2021/05/25 06:33:23;;;;;;;8.60;3.20;;;;;;;19.32;69.30;100649.69;4995349;28;20033;-74
2021/05/25 06:35:50;;;;;;;11.13;3.42;;;;;;;19.23;69.83;100663.47;4995241;28;20137;-74
2021/05/25 06:38:16;;;;;;;14.18;4.05;;;;;;;19.35;69.50;100659.38;4995464;28;20440;-74
2021/05/25 06:40:43;;;;;;;8.82;2.95;;;;;;;19.40;68.63;100666.59;4979185;28;20041;-75
2021/05/25 06:43:08;;;;;;;9.82;2.95;;;;;;;19.47;68.62;100672.19;4995296;28;20018;-75
2021/05/25 06:45:34;;;;;;;7.75;3.10;;;;;;;19.44;68.95;100668.19;4995286;28;20041;-75
2021/05/25 06:47:59;;;;;;;8.05;2.85;;;;;;;19.68;67.36;100665.66;5011634;28;20034;-74
2021/05/25 06:50:25;;;;;;;7.10;2.78;;;;;;;19.78;67.38;100667.59;4995467;28;20069;-73
2021/05/25 06:52:51;;;;;;;15.40;4.13;;;;;;;20.13;66.01;100666.50;4995074;28;20018;-73
2021/05/25 06:55:16;;;;;;;7.47;2.92;;;;;;;20.12;66.49;100667.72;4995263;28;20482;-74
2021/05/25 06:57:42;;;;;;;8.95;2.28;;;;;;;20.32;66.12;100659.47;4995304;28;20093;-73
2021/05/25 07:00:11;;;;;;;9.30;3.00;;;;;;;20.76;64.32;100655.81;4996738;28;20534;-73
2021/05/25 07:02:39;;;;;;;5.10;2.60;;;;;;;21.06;63.12;100657.88;4998608;28;20030;-74
2021/05/25 07:05:07;;;;;;;8.23;3.05;;;;;;;21.25;61.55;100649.97;4998524;28;20395;-74
2021/05/25 07:07:33;;;;;;;9.48;2.55;;;;;;;21.45;61.27;100650.91;4998483;28;20049;-73
2021/05/25 07:09:59;;;;;;;6.30;2.92;;;;;;;21.76;59.73;100653.72;4998254;28;20385;-72
2021/05/25 07:12:24;;;;;;;7.10;2.47;;;;;;;23.04;57.24;100662.00;4998190;28;20080;-74
2021/05/25 07:14:51;;;;;;;8.90;3.22;;;;;;;23.24;56.38;100655.06;4998159;28;20033;-75
2021/05/25 07:17:16;;;;;;;6.05;2.45;;;;;;;23.13;55.80;100653.69;4998127;28;20033;-73
2021/05/25 07:19:42;;;;;;;8.32;2.40;;;;;;;23.66;54.44;100644.00;4998286;28;20140;-73
2021/05/25 07:22:08;;;;;;;7.00;2.42;;;;;;;24.88;50.96;100655.09;4998191;28;20543;-73
2021/05/25 07:24:34;;;;;;;5.35;2.15;;;;;;;24.52;50.93;100654.03;4998542;28;20034;-73
2021/05/25 07:27:00;;;;;;;5.20;2.10;;;;;;;24.16;51.74;100662.66;4997785;28;20030;-74
2021/05/25 07:29:28;;;;;;;7.60;2.65;;;;;;;24.93;49.43;100654.53;4998095;28;20366;-77
2021/05/25 07:31:54;;;;;;;5.30;2.42;;;;;;;24.73;50.58;100660.38;5014213;28;20022;-76
2021/05/25 07:34:20;;;;;;;8.32;2.97;;;;;;;25.60;47.29;100665.97;4997994;28;20346;-75
2021/05/25 07:36:47;;;;;;;6.32;2.13;;;;;;;25.78;47.28;100665.41;5014454;28;20095;-74
2021/05/25 07:39:13;;;;;;;6.35;2.45;;;;;;;25.71;47.63;100668.47;4997810;28;20034;-74
2021/05/25 07:41:39;;;;;;;4.65;1.92;;;;;;;26.53;45.07;100658.03;5015991;28;20033;-74
2021/05/25 07:44:05;;;;;;;5.55;2.05;;;;;;;27.12;43.70;100659.16;5015203;28;20026;-74
2021/05/25 07:46:31;;;;;;;7.82;2.78;;;;;;;27.30;43.09;100664.19;4997924;28;20061;-74
2021/05/25 07:48:57;;;;;;;4.75;1.85;;;;;;;27.61;42.37;100657.69;4997796;28;20022;-78
2021/05/25 07:51:23;;;;;;;8.48;2.55;;;;;;;27.58;42.55;100650.81;4997871;28;20061;-74
2021/05/25 07:53:50;;;;;;;5.38;2.30;;;;;;;27.58;42.67;100662.25;4997904;28;20464;-74
2021/05/25 07:56:15;;;;;;;6.85;2.20;;;;;;;28.57;40.25;100661.47;5013918;28;20476;-75
2021/05/25 07:58:42;;;;;;;8.43;2.53;;;;;;;28.44;41.07;100664.47;5014262;28;20029;-75
2021/05/25 08:01:07;;;;;;;8.35;2.10;;;;;;;28.35;41.32;100647.31;5013893;28;20037;-74
2021/05/25 08:03:35;;;;;;;7.53;2.10;;;;;;;28.63;40.07;100646.06;4997734;28;20026;-75
2021/05/25 08:06:01;;;;;;;6.25;2.38;;;;;;;28.07;41.13;100657.84;4997609;28;20074;-79
2021/05/25 08:08:27;;;;;;;6.85;2.50;;;;;;;28.94;39.27;100650.84;4997384;28;20439;-75
2021/05/25 08:10:53;;;;;;;4.00;1.85;;;;;;;28.32;39.61;100657.59;4993977;28;20492;-74
2021/05/25 08:13:19;;;;;;;3.75;2.00;;;;;;;27.37;41.54;100651.66;4994023;28;20073;-75
2021/05/25 08:15:45;;;;;;;4.30;2.05;;;;;;;27.77;41.36;100662.38;4994195;28;20096;-75
2021/05/25 08:20:46;;;;;;;6.60;1.95;;;;;;;28.44;39.46;100658.75;4995162;28;20053;-75
2021/05/25 08:23:13;;;;;;;10.48;2.60;;;;;;;27.81;40.98;100657.31;4993851;28;20039;-74
2021/05/25 08:25:42;;;;;;;7.45;2.40;;;;;;;27.73;40.78;100661.72;4993963;28;20092;-75
2021/05/25 08:28:08;;;;;;;6.82;1.90;;;;;;;26.73;42.87;100657.72;4993905;28;20034;-76
2021/05/25 08:30:39;;;;;;;4.90;2.20;;;;;;;26.68;43.27;100664.00;4993839;28;20026;-74
2021/05/25 08:33:05;;;;;;;6.90;2.30;;;;;;;25.82;45.65;100660.41;4993875;28;20551;-74
2021/05/25 08:35:35;;;;;;;3.28;2.03;;;;;;;25.58;45.33;100665.63;4993804;28;20038;-74
2021/05/25 08:38:01;;;;;;;3.55;2.05;;;;;;;25.45;46.47;100664.81;4993883;28;20026;-75
2021/05/25 08:40:28;;;;;;;4.68;2.10;;;;;;;24.58;48.30;100656.34;4993633;28;20030;-75
2021/05/25 08:42:55;;;;;;;4.22;2.17;;;;;;;24.89;47.24;100666.03;4993659;28;20027;-74
2021/05/25 08:45:21;;;;;;;7.90;2.40;;;;;;;25.85;45.18;100659.50;4993543;28;20469;-74
2021/05/25 08:47:52;;;;;;;5.60;2.10;;;;;;;25.80;45.79;100657.22;4993719;28;20026;-74
2021/05/25 08:50:21;;;;;;;3.10;2.08;;;;;;;25.90;44.86;100649.59;4993424;28;20061;-74
2021/05/25 08:52:47;;;;;;;3.75;1.77;;;;;;;26.01;45.14;100662.22;4993361;28;20057;-74
2021/05/25 08:55:15;;;;;;;3.47;2.03;;;;;;;26.09;44.50;100663.56;4993326;28;20038;-74
2021/05/25 08:57:41;;;;;;;7.22;2.80;;;;;;;26.26;44.34;100663.41;4993423;28;20096;-74
2021/05/25 09:00:09;;;;;;;7.32;2.25;;;;;;;26.31;44.45;100662.84;4993278;28;20034;-74
2021/05/25 09:02:34;;;;;;;3.80;1.98;;;;;;;26.87;43.06;100667.81;4994536;28;20050;-75
2021/05/25 09:05:20;;;;;;;3.35;1.80;;;;;;;26.75;43.58;100668.69;4993229;28;20034;-74
2021/05/25 09:07:47;;;;;;;7.25;1.90;;;;;;;26.50;43.69;100672.41;4993133;28;20125;-74
2021/05/25 09:10:22;;;;;;;4.00;1.92;;;;;;;27.66;41.28;100671.34;4992793;28;20153;-75
2021/05/25 09:12:53;;;;;;;9.02;2.42;;;;;;;28.19;40.15;100669.19;4993200;28;20033;-74
2021/05/25 09:15:37;;;;;;;5.50;2.40;;;;;;;28.50;39.84;100665.47;4994708;28;20037;-74
2021/05/25 09:18:05;;;;;;;5.05;2.30;;;;;;;28.69;39.01;100664.19;4993016;28;20547;-74
2021/05/25 09:20:53;;;;;;;4.03;2.42;;;;;;;28.96;38.96;100671.19;4993122;28;20449;-74
2021/05/25 09:23:22;;;;;;;4.95;2.03;;;;;;;29.21;37.74;100653.66;4992461;28;20062;-75
2021/05/25 09:25:53;;;;;;;2.70;1.80;;;;;;;28.35;39.46;100667.34;4992857;28;20480;-74
2021/05/25 09:29:02;;;;;;;7.00;1.80;;;;;;;27.60;41.00;100654.03;4992859;28;20052;-74
2021/05/25 09:31:37;;;;;;;5.32;2.13;;;;;;;27.18;41.35;100656.50;4992690;28;20030;-74
2021/05/25 09:34:12;;;;;;;5.13;2.20;;;;;;;27.56;41.03;100667.66;4992775;28;20038;-75
2021/05/25 09:37:03;;;;;;;6.20;2.35;;;;;;;28.16;39.53;100677.91;4992885;28;20439;-75
2021/05/25 09:39:31;;;;;;;3.85;1.73;;;;;;;28.19;39.37;100672.06;4993821;28;20026;-74
2021/05/25 09:42:01;;;;;;;5.00;2.05;;;;;;;29.41;37.08;100672.41;4992725;28;20045;-77
2021/05/25 09:44:28;;;;;;;4.57;1.80;;;;;;;28.01;38.81;100676.91;4992649;28;20033;-75
2021/05/25 09:46:54;;;;;;;6.07;2.17;;;;;;;27.45;40.80;100663.63;4992597;28;20030;-75
2021/05/25 09:49:20;;;;;;;2.55;1.73;;;;;;;27.48;40.31;100669.19;4992495;28;20085;-74
2021/05/25 09:51:47;;;;;;;5.75;1.92;;;;;;;28.14;39.27;100672.66;4992522;28;20057;-74
2021/05/25 09:54:23;;;;;;;4.80;1.88;;;;;;;28.23;39.29;100671.91;4992457;28;20125;-74
2021/05/25 09:56:57;;;;;;;6.15;2.55;;;;;;;27.84;40.66;100670.66;4992674;28;20349;-73
2021/05/25 09:59:39;;;;;;;5.40;2.38;;;;;;;28.63;38.30;100663.22;4992613;28;20151;-74
2021/05/25 10:02:19;;;;;;;9.13;2.43;;;;;;;27.66;39.56;100671.34;4992563;28;20396;-76
2021/05/25 10:05:05;;;;;;;5.45;1.90;;;;;;;27.66;40.10;100666.44;4993786;28;20038;-74
2021/05/25 10:07:33;;;;;;;2.53;1.63;;;;;;;28.74;38.11;100656.22;4992576;28;20028;-74
2021/05/25 10:09:59;;;;;;;3.63;1.70;;;;;;;29.01;37.52;100666.91;4992049;28;20046;-74
2021/05/25 10:12:29;;;;;;;6.20;2.25;;;;;;;27.92;39.17;100664.19;4992213;28;20030;-74
2021/05/25 10:14:56;;;;;;;4.40;2.00;;;;;;;28.27;38.57;100666.81;4992151;28;20069;-74
2021/05/25 10:20:05;;;;;;;4.05;1.45;;;;;;;27.35;38.79;100665.63;4993573;28;20042;-74
2021/05/25 10:22:31;;;;;;;3.42;2.08;;;;;;;28.35;37.45;100661.63;4992519;28;20033;-74
2021/05/25 10:25:01;;;;;;;3.50;1.40;;;;;;;28.79;36.53;100652.72;4992563;28;20387;-75
2021/05/25 10:27:28;;;;;;;1.98;1.25;;;;;;;28.30;37.53;100653.63;4992246;28;20042;-73
2021/05/25 10:29:54;;;;;;;6.07;1.88;;;;;;;28.75;36.86;100667.19;4993672;28;20041;-74
2021/05/25 10:32:25;;;;;;;5.90;1.58;;;;;;;28.79;36.47;100662.13;4992220;28;20026;-75
2021/05/25 10:34:53;;;;;;;4.70;2.33;;;;;;;29.15;35.22;100658.44;4990911;28;20031;-74
2021/05/25 10:37:23;;;;;;;4.63;1.70;;;;;;;29.20;35.78;100649.22;4995820;28;20497;-73
2021/05/25 10:39:56;;;;;;;4.00;1.58;;;;;;;28.60;37.11;100654.78;4996012;28;20499;-74
2021/05/25 10:42:21;;;;;;;;;;;;;;;28.59;37.26;100662.59;4996168;28;20034;-73
2021/05/25 10:45:11;;;;;;;5.85;2.42;;;;;;;27.99;37.83;100650.84;4996075;28;20443;-74
2021/05/25 10:48:03;;;;;;;2.92;1.30;;;;;;;28.93;36.56;100649.22;4995808;28;20030;-74
2021/05/25 10:50:31;;;;;;;4.72;2.00;;;;;;;28.50;36.82;100661.78;4996253;28;20085;-74
2021/05/25 10:52:58;;;;;;;4.37;2.27;;;;;;;29.28;35.44;100657.47;4995776;28;20084;-74
2021/05/25 10:55:29;;;;;;;5.05;1.70;;;;;;;28.64;36.56;100647.63;4995693;28;20030;-74
2021/05/25 10:57:55;;;;;;;5.50;1.80;;;;;;;28.77;37.07;100644.63;4995804;28;20035;-75
2021/05/25 11:00:32;;;;;;;5.30;2.70;;;;;;;28.38;37.70;100649.22;4995628;28;20069;-78
2021/05/25 11:03:01;;;;;;;4.88;2.20;;;;;;;28.35;37.32;100644.44;4995705;28;20030;-75
2021/05/25 11:05:26;;;;;;;3.53;2.00;;;;;;;27.61;39.08;100647.03;4995431;28;20093;-74
2021/05/25 11:07:53;;;;;;;8.75;2.83;;;;;;;27.45;40.13;100641.56;4995553;28;20477;-75
2021/05/25 11:10:32;;;;;;;5.72;2.55;;;;;;;27.20;40.61;100636.81;4994987;28;20054;-74
2021/05/25 11:13:21;;;;;;;7.28;1.90;;;;;;;27.18;40.38;100645.06;4995414;28;20361;-74
2021/05/25 11:16:24;;;;;;;4.15;2.03;;;;;;;27.35;40.25;100643.56;4995782;28;20030;-74
2021/05/25 11:21:39;;;;;;;6.53;1.50;;;;;;;26.29;43.62;100631.13;4996471;28;20371;-78
2021/05/25 11:24:37;;;;;;;2.80;1.55;;;;;;;27.21;41.46;100637.63;4995290;28;20128;-74
2021/05/25 11:27:04;;;;;;;2.85;2.05;;;;;;;27.21;40.71;100631.91;4995309;28;20029;-74
2021/05/25 11:29:55;;;;;;;5.93;2.10;;;;;;;27.20;41.26;100633.97;4995104;28;20133;-74
2021/05/25 11:32:23;;;;;;;3.65;1.67;;;;;;;25.80;44.48;100635.22;4994931;28;20089;-76
2021/05/25 11:35:00;;;;;;;6.05;2.10;;;;;;;26.19;43.73;100641.66;4994976;28;20456;-74
2021/05/25 11:37:31;;;;;;;5.72;2.67;;;;;;;26.02;43.36;100612.50;4994929;28;20026;-74